Time;durP1;ratioP1;P1;durP2;ratioP2;P2;SDS_P1;SDS_P2;PMS_P1;PMS_P2;Temp;Humidity;BMP_temperature;BMP_pressure;BME280_temperature;BME280_humidity;BME280_pressure;Samples;Min_cycle;Max_cycle;Signal;HPM_P1;HPM_P2
2023/06/13 00:00:45;;;;;;;10.68;6.97;;;;;;;;;;5026884;28;20410;-69
2023/06/13 00:03:14;;;;;;;10.35;7.00;;;;;;;;;;5026783;28;20049;-69
2023/06/13 00:05:45;;;;;;;12.18;7.35;;;;;;;;;;5027580;28;20403;-69
2023/06/13 00:08:17;;;;;;;12.52;7.30;;;;;;;;;;5027322;28;20079;-69
2023/06/13 00:10:46;;;;;;;12.48;7.60;;;;;;;;;;5023948;28;20026;-69
2023/06/13 00:13:14;;;;;;;8.93;6.80;;;;;;;;;;5025663;28;20033;-69
2023/06/13 00:15:48;;;;;;;10.25;7.13;;;;;;;;;;5026889;28;20029;-69
2023/06/13 00:18:15;;;;;;;11.70;7.35;;;;;;;;;;5027620;28;20033;-69
2023/06/13 00:20:41;;;;;;;16.38;7.25;;;;;;;;;;5027935;28;20029;-69
2023/06/13 00:23:08;;;;;;;10.63;7.30;;;;;;;;;;5012012;28;20674;-69
2023/06/13 00:25:34;;;;;;;11.48;7.00;;;;;;;;;;5028885;28;20477;-69
2023/06/13 00:27:59;;;;;;;13.77;7.53;;;;;;;;;;5035616;28;20056;-69
2023/06/13 00:30:24;;;;;;;11.18;7.38;;;;;;;;;;5028693;28;20486;-69
2023/06/13 00:32:50;;;;;;;11.10;7.60;;;;;;;;;;5026685;28;20124;-69
2023/06/13 00:35:15;;;;;;;11.68;7.32;;;;;;;;;;5027437;28;20033;-69
2023/06/13 00:37:41;;;;;;;11.18;7.85;;;;;;;;;;5027048;28;20049;-69
2023/06/13 00:40:07;;;;;;;11.38;6.82;;;;;;;;;;5026495;28;20037;-69
2023/06/13 00:42:32;;;;;;;18.38;8.30;;;;;;;;;;5026725;28;20704;-69
2023/06/13 00:45:21;;;;;;;10.55;7.80;;;;;;;;;;5026926;28;20479;-69
2023/06/13 00:47:51;;;;;;;9.70;7.45;;;;;;;;;;5025449;28;20090;-69
2023/06/13 00:50:18;;;;;;;10.75;7.22;;;;;;;;;;5025918;28;20342;-69
2023/06/13 00:52:45;;;;;;;9.65;6.95;;;;;;;;;;5026935;28;20108;-69
2023/06/13 00:55:11;;;;;;;11.65;7.55;;;;;;;;;;5027042;28;20035;-69
2023/06/13 00:57:38;;;;;;;12.82;7.57;;;;;;;;;;5026063;28;20029;-69
2023/06/13 01:00:05;;;;;;;9.95;7.22;;;;;;;;;;5026339;28;20549;-69
2023/06/13 01:02:32;;;;;;;10.35;8.02;;;;;;;;;;5026283;28;20171;-69
2023/06/13 01:04:58;;;;;;;11.38;7.85;;;;;;;;;;5026290;28;20112;-69
2023/06/13 01:07:29;;;;;;;10.77;7.75;;;;;;;;;;5024688;28;20460;-69
2023/06/13 01:09:55;;;;;;;10.15;6.88;;;;;;;;;;5025499;28;20078;-69
2023/06/13 01:12:27;;;;;;;11.27;7.45;;;;;;;;;;5020291;28;20030;-69
2023/06/13 01:15:04;;;;;;;12.23;8.02;;;;;;;;;;5018670;28;20634;-69
2023/06/13 01:17:41;;;;;;;11.75;7.43;;;;;;;;;;5014227;28;20021;-69
2023/06/13 01:20:14;;;;;;;10.27;7.07;;;;;;;;;;5025764;28;20033;-69
2023/06/13 01:22:52;;;;;;;11.57;7.18;;;;;;;;;;5024159;28;20049;-69
2023/06/13 01:25:28;;;;;;;10.10;7.57;;;;;;;;;;5024310;28;20037;-69
2023/06/13 01:27:56;;;;;;;9.93;7.97;;;;;;;;;;5025073;28;20033;-69
2023/06/13 01:30:22;;;;;;;10.65;7.47;;;;;;;;;;5025400;28;20036;-69
2023/06/13 01:32:50;;;;;;;10.73;7.22;;;;;;;;;;5026325;28;20025;-69
2023/06/13 01:35:16;;;;;;;13.88;7.55;;;;;;;;;;5021879;28;20029;-69
2023/06/13 01:37:41;;;;;;;12.15;7.78;;;;;;;;;;5025108;28;20026;-69
2023/06/13 01:40:10;;;;;;;12.20;7.80;;;;;;;;;;5020772;28;20040;-69
2023/06/13 01:42:35;;;;;;;9.90;7.32;;;;;;;;;;5008752;28;20044;-69
2023/06/13 01:45:02;;;;;;;12.27;8.15;;;;;;;;;;5017050;28;20128;-69
2023/06/13 01:47:35;;;;;;;10.13;7.35;;;;;;;;;;5016243;28;20030;-69
2023/06/13 01:50:14;;;;;;;10.10;7.45;;;;;;;;;;5024782;28;20087;-69
2023/06/13 01:53:04;;;;;;;11.23;8.05;;;;;;;;;;5022941;28;20041;-69
2023/06/13 01:55:36;;;;;;;10.18;7.78;;;;;;;;;;5029169;28;20509;-69
2023/06/13 01:58:12;;;;;;;10.75;7.75;;;;;;;;;;5028378;28;20030;-69
2023/06/13 02:00:40;;;;;;;9.55;7.28;;;;;;;;;;5012146;28;20056;-69
2023/06/13 02:03:06;;;;;;;9.30;7.40;;;;;;;;;;5025173;28;20057;-69
2023/06/13 02:05:31;;;;;;;13.35;7.72;;;;;;;;;;5025601;28;20032;-69
2023/06/13 02:07:57;;;;;;;12.00;7.72;;;;;;;;;;5024927;28;20122;-69
2023/06/13 02:10:23;;;;;;;10.45;7.30;;;;;;;;;;5024780;28;20039;-69
2023/06/13 02:12:49;;;;;;;11.25;8.02;;;;;;;;;;5011743;28;20033;-69
2023/06/13 02:15:14;;;;;;;12.82;7.55;;;;;;;;;;5025208;28;20032;-69
2023/06/13 02:17:40;;;;;;;11.63;8.02;;;;;;;;;;5025035;28;20051;-69
2023/06/13 02:20:06;;;;;;;12.35;7.22;;;;;;;;;;5025075;28;20486;-69
2023/06/13 02:22:32;;;;;;;11.68;7.35;;;;;;;;;;5024867;28;20037;-68
2023/06/13 02:24:58;;;;;;;14.63;7.63;;;;;;;;;;5023692;28;20029;-69
2023/06/13 02:27:23;;;;;;;17.92;8.73;;;;;;;;;;5030314;28;20036;-69
2023/06/13 02:29:48;;;;;;;10.57;8.02;;;;;;;;;;5031612;28;20041;-69
2023/06/13 02:32:15;;;;;;;11.27;7.57;;;;;;;;;;5032050;28;20504;-69
2023/06/13 02:34:40;;;;;;;12.63;7.70;;;;;;;;;;5030526;28;20025;-69
2023/06/13 02:37:06;;;;;;;15.05;8.30;;;;;;;;;;5031826;28;20422;-69
2023/06/13 02:39:31;;;;;;;11.45;8.15;;;;;;;;;;5032363;28;20622;-69
2023/06/13 02:41:56;;;;;;;11.90;8.18;;;;;;;;;;5030948;28;20025;-69
2023/06/13 02:44:21;;;;;;;12.43;8.35;;;;;;;;;;5031631;28;20121;-69
2023/06/13 02:46:47;;;;;;;10.77;7.30;;;;;;;;;;5031042;28;20043;-69
2023/06/13 02:49:12;;;;;;;11.68;7.60;;;;;;;;;;5025727;28;20036;-69
2023/06/13 02:51:37;;;;;;;13.77;7.40;;;;;;;;;;5031467;28;20033;-69
2023/06/13 02:54:03;;;;;;;9.82;7.15;;;;;;;;;;5031718;28;20025;-69
2023/06/13 02:56:29;;;;;;;12.40;8.48;;;;;;;;;;5031406;28;20103;-69
2023/06/13 02:58:54;;;;;;;11.15;8.13;;;;;;;;;;5031411;28;20030;-69
2023/06/13 03:01:20;;;;;;;10.88;8.10;;;;;;;;;;5030451;28;20037;-69
2023/06/13 03:03:47;;;;;;;11.57;7.93;;;;;;;;;;5031462;28;20056;-69
2023/06/13 03:06:17;;;;;;;11.07;7.60;;;;;;;;;;5031204;28;20048;-69
2023/06/13 03:08:43;;;;;;;12.70;7.72;;;;;;;;;;5021477;28;20764;-69
2023/06/13 03:11:09;;;;;;;13.95;8.20;;;;;;;;;;5030637;28;20035;-69
2023/06/13 03:13:34;;;;;;;11.07;8.15;;;;;;;;;;5018386;28;20029;-69
2023/06/13 03:16:01;;;;;;;10.48;7.45;;;;;;;;;;5029863;28;20112;-69
2023/06/13 03:18:27;;;;;;;12.52;7.80;;;;;;;;;;5032512;28;20180;-69
2023/06/13 03:20:53;;;;;;;11.30;7.60;;;;;;;;;;5032344;28;20450;-69
2023/06/13 03:23:18;;;;;;;11.70;7.88;;;;;;;;;;5037670;28;20033;-69
2023/06/13 03:25:44;;;;;;;11.82;8.30;;;;;;;;;;5039590;28;20461;-69
2023/06/13 03:28:09;;;;;;;10.98;7.93;;;;;;;;;;5030724;28;20047;-69
2023/06/13 03:30:36;;;;;;;11.90;7.60;;;;;;;;;;5030095;28;20029;-68
2023/06/13 03:33:02;;;;;;;13.55;7.30;;;;;;;;;;5031177;28;20140;-69
2023/06/13 03:35:27;;;;;;;14.18;8.27;;;;;;;;;;5030727;28;20029;-69
2023/06/13 03:37:53;;;;;;;16.83;12.73;;;;;;;;;;5028843;28;20088;-69
2023/06/13 03:40:18;;;;;;;11.30;8.32;;;;;;;;;;5027868;28;20032;-69
2023/06/13 03:42:43;;;;;;;12.02;8.20;;;;;;;;;;5027479;28;20033;-69
2023/06/13 03:45:09;;;;;;;12.77;8.45;;;;;;;;;;5028253;28;20027;-69
2023/06/13 03:47:34;;;;;;;12.80;8.57;;;;;;;;;;5027130;28;20669;-69
2023/06/13 03:50:00;;;;;;;12.65;8.00;;;;;;;;;;5028079;28;20483;-69
2023/06/13 03:52:25;;;;;;;12.30;8.05;;;;;;;;;;5027877;28;20028;-69
2023/06/13 03:54:51;;;;;;;14.18;8.57;;;;;;;;;;5022798;28;20025;-69
2023/06/13 03:57:16;;;;;;;13.40;8.75;;;;;;;;;;5027466;28;20065;-69
2023/06/13 03:59:42;;;;;;;11.25;8.07;;;;;;;;;;5025885;28;20123;-69
2023/06/13 04:02:07;;;;;;;14.02;8.70;;;;;;;;;;5025974;28;20124;-69
2023/06/13 04:04:33;;;;;;;12.63;7.72;;;;;;;;;;5027487;28;20069;-69
2023/06/13 04:07:05;;;;;;;12.45;8.23;;;;;;;;;;5027021;28;20025;-69
2023/06/13 04:09:31;;;;;;;12.68;8.20;;;;;;;;;;5014316;28;20048;-69
2023/06/13 04:11:56;;;;;;;14.30;8.60;;;;;;;;;;5026991;28;20013;-69
2023/06/13 04:14:21;;;;;;;13.10;8.68;;;;;;;;;;5013304;28;20118;-69
2023/06/13 04:16:46;;;;;;;12.00;8.00;;;;;;;;;;5026176;28;20724;-69
2023/06/13 04:19:18;;;;;;;11.50;7.78;;;;;;;;;;5027240;28;20505;-69
2023/06/13 04:21:45;;;;;;;17.38;8.77;;;;;;;;;;5025965;28;20025;-69
2023/06/13 04:24:11;;;;;;;12.13;8.13;;;;;;;;;;5027538;28;20029;-69
2023/06/13 04:26:37;;;;;;;13.07;8.75;;;;;;;;;;5026439;28;20083;-69
2023/06/13 04:29:02;;;;;;;13.90;9.05;;;;;;;;;;5025427;28;20037;-69
2023/06/13 04:31:34;;;;;;;12.75;8.10;;;;;;;;;;5027038;28;20524;-69
2023/06/13 04:34:03;;;;;;;12.55;7.68;;;;;;;;;;5026204;28;20021;-69
2023/06/13 04:36:29;;;;;;;12.10;8.43;;;;;;;;;;5026981;28;20044;-69
2023/06/13 04:38:54;;;;;;;15.13;8.10;;;;;;;;;;5017255;28;20419;-69
2023/06/13 04:41:20;;;;;;;13.50;7.95;;;;;;;;;;5024623;28;20029;-69
2023/06/13 04:43:45;;;;;;;12.52;7.80;;;;;;;;;;5027078;28;20053;-70
2023/06/13 04:46:10;;;;;;;13.98;8.48;;;;;;;;;;5027091;28;20067;-69
2023/06/13 04:48:37;;;;;;;13.13;8.43;;;;;;;;;;5027071;28;20029;-69
2023/06/13 04:51:03;;;;;;;11.13;7.97;;;;;;;;;;5028559;28;20462;-70
2023/06/13 04:53:29;;;;;;;11.18;8.30;;;;;;;;;;5028087;28;20094;-70
2023/06/13 04:55:57;;;;;;;12.90;7.90;;;;;;;;;;5026320;28;20675;-70
2023/06/13 04:58:23;;;;;;;10.73;8.15;;;;;;;;;;5024674;28;20631;-70
2023/06/13 05:00:50;;;;;;;15.27;8.60;;;;;;;;;;5021863;28;20032;-70
2023/06/13 05:03:20;;;;;;;11.43;8.18;;;;;;;;;;5019453;28;20049;-70
2023/06/13 05:05:46;;;;;;;11.95;8.70;;;;;;;;;;5011716;28;20148;-70
2023/06/13 05:08:13;;;;;;;12.60;8.18;;;;;;;;;;5022909;28;20025;-70
2023/06/13 05:10:41;;;;;;;13.32;8.45;;;;;;;;;;5025211;28;20122;-70
2023/06/13 05:13:07;;;;;;;13.40;8.27;;;;;;;;;;5025094;28;20438;-70
2023/06/13 05:15:32;;;;;;;14.75;7.88;;;;;;;;;;5025881;28;20025;-70
2023/06/13 05:17:58;;;;;;;12.38;7.90;;;;;;;;;;5022065;28;20071;-70
2023/06/13 05:20:26;;;;;;;20.55;8.48;;;;;;;;;;5019064;28;20045;-69
2023/06/13 05:22:53;;;;;;;16.95;9.05;;;;;;;;;;5013130;28;20213;-70
2023/06/13 05:25:21;;;;;;;14.23;8.10;;;;;;;;;;5024161;28;20723;-70
2023/06/13 05:27:47;;;;;;;14.77;8.68;;;;;;;;;;5024775;28;20521;-70
2023/06/13 05:30:13;;;;;;;13.70;8.90;;;;;;;;;;5025748;28;20029;-70
2023/06/13 05:32:38;;;;;;;12.95;8.80;;;;;;;;;;5024861;28;20083;-70
2023/06/13 05:35:04;;;;;;;13.07;8.85;;;;;;;;;;5015856;28;20032;-69
2023/06/13 05:37:30;;;;;;;14.73;8.55;;;;;;;;;;5015397;28;20029;-70
2023/06/13 05:39:56;;;;;;;14.38;9.73;;;;;;;;;;5011964;28;20029;-70
2023/06/13 05:42:22;;;;;;;11.23;8.43;;;;;;;;;;5013908;28;20032;-70
2023/06/13 05:44:47;;;;;;;13.60;8.57;;;;;;;;;;5024488;28;20498;-70
2023/06/13 05:47:12;;;;;;;12.95;8.32;;;;;;;;;;5021427;28;20038;-70
2023/06/13 05:49:38;;;;;;;10.73;8.30;;;;;;;;;;5013052;28;20033;-70
2023/06/13 05:52:03;;;;;;;14.02;8.55;;;;;;;;;;5019835;28;20017;-70
2023/06/13 05:54:29;;;;;;;13.88;8.63;;;;;;;;;;5013551;28;20021;-70
2023/06/13 05:56:54;;;;;;;11.65;8.38;;;;;;;;;;5014633;28;20672;-69
2023/06/13 05:59:20;;;;;;;12.85;8.23;;;;;;;;;;5013004;28;20048;-70
2023/06/13 06:01:46;;;;;;;12.20;8.27;;;;;;;;;;5018886;28;20467;-70
2023/06/13 06:04:12;;;;;;;13.63;8.85;;;;;;;;;;5017770;28;20050;-70
2023/06/13 06:06:37;;;;;;;15.35;8.60;;;;;;;;;;5024480;28;20054;-70
2023/06/13 06:09:03;;;;;;;13.25;8.52;;;;;;;;;;5024518;28;20037;-70
2023/06/13 06:11:30;;;;;;;15.50;7.78;;;;;;;;;;5025600;28;20029;-69
2023/06/13 06:13:56;;;;;;;13.88;8.35;;;;;;;;;;5020978;28;20098;-70
2023/06/13 06:16:21;;;;;;;13.13;8.93;;;;;;;;;;5023638;28;20137;-71
2023/06/13 06:18:48;;;;;;;12.90;8.70;;;;;;;;;;5007430;28;20037;-71
2023/06/13 06:21:14;;;;;;;15.07;8.90;;;;;;;;;;5021943;28;20420;-70
2023/06/13 06:23:42;;;;;;;12.27;7.85;;;;;;;;;;5013270;28;20030;-70
2023/06/13 06:26:08;;;;;;;11.82;8.40;;;;;;;;;;5022777;28;20026;-70
2023/06/13 06:28:33;;;;;;;14.18;8.00;;;;;;;;;;5023683;28;20414;-70
2023/06/13 06:31:00;;;;;;;14.40;8.02;;;;;;;;;;5019060;28;20026;-70
2023/06/13 06:33:25;;;;;;;14.60;7.68;;;;;;;;;;5004084;28;20044;-69
2023/06/13 06:35:52;;;;;;;12.38;7.88;;;;;;;;;;4978663;28;20033;-70
2023/06/13 06:38:17;;;;;;;19.35;8.30;;;;;;;;;;5013490;28;20037;-70
2023/06/13 06:40:43;;;;;;;17.73;7.97;;;;;;;;;;5008385;28;20029;-70
2023/06/13 06:43:08;;;;;;;11.38;7.43;;;;;;;;;;5011227;28;20088;-70
2023/06/13 06:45:33;;;;;;;16.90;8.52;;;;;;;;;;5016162;28;20021;-70
2023/06/13 06:47:59;;;;;;;16.08;8.18;;;;;;;;;;5014028;28;20033;-70
2023/06/13 06:50:24;;;;;;;13.82;7.72;;;;;;;;;;5012314;28;20623;-70
2023/06/13 06:52:49;;;;;;;11.70;7.57;;;;;;;;;;5017216;28;20036;-70
2023/06/13 06:55:15;;;;;;;18.30;7.63;;;;;;;;;;5020428;28;20520;-70
2023/06/13 06:57:40;;;;;;;14.07;7.85;;;;;;;;;;5023679;28;20503;-70
2023/06/13 07:00:08;;;;;;;10.48;7.88;;;;;;;;;;5023106;28;20061;-70
2023/06/13 07:02:34;;;;;;;12.50;8.10;;;;;;;;;;5016984;28;20026;-70
2023/06/13 07:05:00;;;;;;;14.57;8.15;;;;;;;;;;5021880;28;20041;-69
2023/06/13 07:07:25;;;;;;;10.80;7.13;;;;;;;;;;5023582;28;20037;-70
2023/06/13 07:09:51;;;;;;;13.57;8.75;;;;;;;;;;5023666;28;20025;-70
2023/06/13 07:12:16;;;;;;;13.68;7.75;;;;;;;;;;5025002;28;20022;-70
2023/06/13 07:14:41;;;;;;;11.20;7.45;;;;;;;;;;5026626;28;20021;-69
2023/06/13 07:17:06;;;;;;;11.68;7.70;;;;;;;;;;5027589;28;20060;-70
2023/06/13 07:19:32;;;;;;;13.00;8.07;;;;;;;;;;5027983;28;20064;-69
2023/06/13 07:22:00;;;;;;;14.38;8.10;;;;;;;;;;5022133;28;20138;-70
2023/06/13 07:24:26;;;;;;;13.07;7.95;;;;;;;;;;5022794;28;20116;-69
2023/06/13 07:26:51;;;;;;;19.75;8.57;;;;;;;;;;5029193;28;20112;-70
2023/06/13 07:29:16;;;;;;;15.45;7.43;;;;;;;;;;5026980;28;20510;-70
2023/06/13 07:31:42;;;;;;;11.77;7.85;;;;;;;;;;5027359;28;20105;-69
2023/06/13 07:34:07;;;;;;;14.55;8.30;;;;;;;;;;5024549;28;20029;-70
2023/06/13 07:36:33;;;;;;;14.07;7.65;;;;;;;;;;5027308;28;20445;-70
2023/06/13 07:38:58;;;;;;;9.73;7.00;;;;;;;;;;5024179;28;20029;-72
2023/06/13 07:41:23;;;;;;;11.82;7.85;;;;;;;;;;5016099;28;20042;-70
2023/06/13 07:43:49;;;;;;;15.77;7.65;;;;;;;;;;5029350;28;20080;-70
2023/06/13 07:46:15;;;;;;;9.65;7.03;;;;;;;;;;5026830;28;20018;-70
2023/06/13 07:48:41;;;;;;;15.38;7.90;;;;;;;;;;5020066;28;20072;-70
2023/06/13 07:51:06;;;;;;;17.52;8.20;;;;;;;;;;5013852;28;20763;-70
2023/06/13 07:53:31;;;;;;;11.23;7.38;;;;;;;;;;5016644;28;20193;-71
2023/06/13 07:55:57;;;;;;;12.95;8.40;;;;;;;;;;5019126;28;20057;-70
2023/06/13 07:58:22;;;;;;;11.40;7.55;;;;;;;;;;5018642;28;20086;-70
2023/06/13 08:00:48;;;;;;;14.82;8.20;;;;;;;;;;5026762;28;20071;-70
2023/06/13 08:03:13;;;;;;;16.13;7.68;;;;;;;;;;5024253;28;20102;-70
2023/06/13 08:05:39;;;;;;;16.70;7.82;;;;;;;;;;5019486;28;20033;-70
2023/06/13 08:08:04;;;;;;;13.38;8.07;;;;;;;;;;5024122;28;20025;-70
2023/06/13 08:10:29;;;;;;;14.65;7.53;;;;;;;;;;5026666;28;20036;-69
2023/06/13 08:12:55;;;;;;;13.85;7.90;;;;;;;;;;5026158;28;20518;-70
2023/06/13 08:15:20;;;;;;;14.95;8.00;;;;;;;;;;5026069;28;20028;-70
2023/06/13 08:17:46;;;;;;;11.82;7.63;;;;;;;;;;5026628;28;20023;-70
2023/06/13 08:20:11;;;;;;;15.65;7.63;;;;;;;;;;5020762;28;20033;-70
2023/06/13 08:22:38;;;;;;;12.30;6.93;;;;;;;;;;5025747;28;20037;-70
2023/06/13 08:25:07;;;;;;;10.63;7.50;;;;;;;;;;5024982;28;20017;-70
2023/06/13 08:27:32;;;;;;;12.13;7.80;;;;;;;;;;5024861;28;20420;-70
2023/06/13 08:29:58;;;;;;;12.30;7.32;;;;;;;;;;5026603;28;20561;-70
2023/06/13 08:32:24;;;;;;;15.30;6.93;;;;;;;;;;5022131;28;20021;-70
2023/06/13 08:34:49;;;;;;;12.77;7.38;;;;;;;;;;5026553;28;20021;-70
2023/06/13 08:37:15;;;;;;;13.85;7.25;;;;;;;;;;5025202;28;20108;-70
2023/06/13 08:39:41;;;;;;;15.13;7.63;;;;;;;;;;5017828;28;20056;-70
2023/06/13 08:42:07;;;;;;;11.27;7.22;;;;;;;;;;5023717;28;20033;-70
2023/06/13 08:44:33;;;;;;;13.43;7.72;;;;;;;;;;5022644;28;20028;-70
2023/06/13 08:46:58;;;;;;;8.93;6.78;;;;;;;;;;5022403;28;20033;-70
2023/06/13 08:49:24;;;;;;;9.23;7.18;;;;;;;;;;5024144;28;20495;-70
2023/06/13 08:51:51;;;;;;;15.57;7.55;;;;;;;;;;5010871;28;20028;-70
2023/06/13 08:54:18;;;;;;;10.35;6.88;;;;;;;;;;5022127;28;20514;-70
2023/06/13 08:56:45;;;;;;;10.13;6.78;;;;;;;;;;5014106;28;20641;-70
2023/06/13 08:59:24;;;;;;;11.30;6.55;;;;;;;;;;5021819;28;20037;-70
2023/06/13 09:01:49;;;;;;;12.60;6.55;;;;;;;;;;5013146;28;20037;-70
2023/06/13 09:04:16;;;;;;;11.38;7.20;;;;;;;;;;5023614;28;20068;-70
2023/06/13 09:06:43;;;;;;;8.45;6.88;;;;;;;;;;5022757;28;20030;-70
2023/06/13 09:09:10;;;;;;;12.43;7.53;;;;;;;;;;5025697;28;20037;-70
2023/06/13 09:11:36;;;;;;;10.50;6.95;;;;;;;;;;5021977;28;20034;-70
2023/06/13 09:14:06;;;;;;;11.43;7.55;;;;;;;;;;5027096;28;20466;-70
2023/06/13 09:16:32;;;;;;;12.73;7.20;;;;;;;;;;5023234;28;20025;-69
2023/06/13 09:18:58;;;;;;;10.02;7.10;;;;;;;;;;5024146;28;20112;-70
2023/06/13 09:21:23;;;;;;;9.52;6.97;;;;;;;;;;5022520;28;20034;-69
2023/06/13 09:23:49;;;;;;;12.23;7.75;;;;;;;;;;5022181;28;20538;-70
2023/06/13 09:26:16;;;;;;;10.30;6.68;;;;;;;;;;5015350;28;20474;-69
2023/06/13 09:28:43;;;;;;;10.07;7.35;;;;;;;;;;5022752;28;20460;-69
2023/06/13 09:31:10;;;;;;;13.27;7.88;;;;;;;;;;5022493;28;20021;-70
2023/06/13 09:33:36;;;;;;;15.77;6.95;;;;;;;;;;5021745;28;20041;-70
2023/06/13 09:36:02;;;;;;;11.10;7.07;;;;;;;;;;5017735;28;20366;-70
2023/06/13 09:38:28;;;;;;;9.50;7.28;;;;;;;;;;5016264;28;20042;-70
2023/06/13 09:40:55;;;;;;;10.95;7.68;;;;;;;;;;5021800;28;20035;-69
2023/06/13 09:43:22;;;;;;;12.20;7.45;;;;;;;;;;5021245;28;20048;-69
2023/06/13 09:45:50;;;;;;;9.15;6.97;;;;;;;;;;5017310;28;20045;-69
2023/06/13 09:48:16;;;;;;;10.70;7.53;;;;;;;;;;5014779;28;20279;-70
2023/06/13 09:50:42;;;;;;;13.00;7.35;;;;;;;;;;5021433;28;20152;-69
2023/06/13 09:53:08;;;;;;;10.10;7.45;;;;;;;;;;5021565;28;20974;-70
2023/06/13 09:55:34;;;;;;;9.50;7.85;;;;;;;;;;5020390;28;20049;-70
2023/06/13 09:58:01;;;;;;;11.80;7.43;;;;;;;;;;5021732;28;20035;-70
2023/06/13 10:00:28;;;;;;;12.77;7.28;;;;;;;;;;5023316;28;20044;-69
2023/06/13 10:02:54;;;;;;;11.10;8.00;;;;;;;;;;5021589;28;20060;-69
2023/06/13 10:05:20;;;;;;;9.43;7.40;;;;;;;;;;5021921;28;20034;-69
2023/06/13 10:07:45;;;;;;;10.20;7.05;;;;;;;;;;5021600;28;20036;-70
2023/06/13 10:10:10;;;;;;;9.57;7.40;;;;;;;;;;5021993;28;20025;-69
2023/06/13 10:12:44;;;;;;;9.57;7.47;;;;;;;;;;5010908;28;20548;-70
2023/06/13 10:15:11;;;;;;;;;;;;;;;;;;5020936;28;20038;-69
2023/06/13 10:17:40;;;;;;;11.18;7.68;;;;;;;;;;5022508;28;20020;-69
2023/06/13 10:20:10;;;;;;;10.10;7.55;;;;;;;;;;5021083;28;20030;-69
2023/06/13 10:22:38;;;;;;;12.60;7.30;;;;;;;;;;5020089;28;20040;-69
2023/06/13 10:25:06;;;;;;;10.80;7.95;;;;;;;;;;5020362;28;20115;-69
2023/06/13 10:27:31;;;;;;;9.48;6.82;;;;;;;;;;5021775;28;20120;-70
2023/06/13 10:30:09;;;;;;;12.90;7.60;;;;;;;;;;5021768;28;20148;-69
2023/06/13 10:32:58;;;;;;;10.77;7.85;;;;;;;;;;5020844;28;20444;-70
2023/06/13 10:35:33;;;;;;;9.48;7.40;;;;;;;;;;5022607;28;20041;-70
2023/06/13 10:38:33;;;;;;;12.32;7.53;;;;;;;;;;5025938;28;20140;-69
2023/06/13 10:41:07;;;;;;;9.75;7.47;;;;;;;;;;5028646;28;20120;-69
2023/06/13 10:43:57;;;;;;;9.88;7.57;;;;;;;;;;5021655;28;20030;-70
2023/06/13 10:46:22;;;;;;;9.60;7.57;;;;;;;;;;5021629;28;20047;-69
2023/06/13 10:48:49;;;;;;;9.88;7.25;;;;;;;;;;5024012;28;20021;-70
2023/06/13 10:51:22;;;;;;;10.07;7.78;;;;;;;;;;5025209;28;20087;-70
2023/06/13 10:54:03;;;;;;;10.60;7.25;;;;;;;;;;5025994;28;20065;-69
2023/06/13 10:56:32;;;;;;;11.30;7.00;;;;;;;;;;5025718;28;20041;-69
2023/06/13 10:59:09;;;;;;;10.50;6.85;;;;;;;;;;5022655;28;20462;-69
2023/06/13 11:01:42;;;;;;;10.82;7.90;;;;;;;;;;5019277;28;20030;-70
2023/06/13 11:04:10;;;;;;;11.60;7.75;;;;;;;;;;5021120;28;20049;-70
2023/06/13 11:06:37;;;;;;;9.82;6.88;;;;;;;;;;5016933;28;20045;-70
2023/06/13 11:09:33;;;;;;;9.75;6.80;;;;;;;;;;5025930;28;20622;-70
2023/06/13 11:12:02;;;;;;;11.63;6.88;;;;;;;;;;5025329;28;20476;-70
2023/06/13 11:14:31;;;;;;;8.23;6.82;;;;;;;;;;5017902;28;20120;-70
2023/06/13 11:16:56;;;;;;;8.68;6.90;;;;;;;;;;5021001;28;20041;-70
2023/06/13 11:19:27;;;;;;;9.65;6.45;;;;;;;;;;5017221;28;20457;-69
2023/06/13 11:21:59;;;;;;;9.57;6.75;;;;;;;;;;5026502;28;20021;-70
2023/06/13 11:24:27;;;;;;;10.30;6.70;;;;;;;;;;5026087;28;20111;-70
2023/06/13 11:26:55;;;;;;;8.80;6.47;;;;;;;;;;5026471;28;20037;-70
2023/06/13 11:29:21;;;;;;;8.57;6.47;;;;;;;;;;5027151;28;20554;-70
2023/06/13 11:31:51;;;;;;;9.05;6.40;;;;;;;;;;5026819;28;20152;-70
2023/06/13 11:34:18;;;;;;;8.68;6.63;;;;;;;;;;5026026;28;20025;-70
2023/06/13 11:36:44;;;;;;;8.65;6.35;;;;;;;;;;5027117;28;20024;-70
2023/06/13 11:39:13;;;;;;;9.95;6.60;;;;;;;;;;5025622;28;20033;-70
2023/06/13 11:41:39;;;;;;;9.65;6.95;;;;;;;;;;5026808;28;20029;-70
2023/06/13 11:44:06;;;;;;;8.00;6.45;;;;;;;;;;5027791;28;20108;-70
2023/06/13 11:46:31;;;;;;;9.90;6.75;;;;;;;;;;5026468;28;20071;-70
2023/06/13 11:48:57;;;;;;;10.63;6.72;;;;;;;;;;5027669;28;20029;-70
2023/06/13 11:51:23;;;;;;;9.25;7.10;;;;;;;;;;5025858;28;20051;-70
2023/06/13 11:53:58;;;;;;;10.18;7.10;;;;;;;;;;5027215;28;20037;-70
2023/06/13 11:56:25;;;;;;;9.15;6.75;;;;;;;;;;5019641;28;20481;-69
2023/06/13 11:58:52;;;;;;;8.70;7.00;;;;;;;;;;5021929;28;20053;-70
2023/06/13 12:01:20;;;;;;;8.20;6.35;;;;;;;;;;5032696;28;20030;-69
2023/06/13 12:03:48;;;;;;;9.77;7.10;;;;;;;;;;5036405;28;20056;-70
2023/06/13 12:06:14;;;;;;;13.77;6.68;;;;;;;;;;5025167;28;20132;-70
2023/06/13 12:08:41;;;;;;;9.60;7.18;;;;;;;;;;5035995;28;20036;-70
2023/06/13 12:11:11;;;;;;;8.18;6.53;;;;;;;;;;5010428;28;20038;-70
2023/06/13 12:13:37;;;;;;;9.43;5.97;;;;;;;;;;5021831;28;20045;-70
2023/06/13 12:16:03;;;;;;;7.60;6.32;;;;;;;;;;5036285;28;20037;-70
2023/06/13 12:18:29;;;;;;;7.80;6.53;;;;;;;;;;5027203;28;20034;-70
2023/06/13 12:20:56;;;;;;;9.98;6.68;;;;;;;;;;5027004;28;20044;-70
2023/06/13 12:23:23;;;;;;;16.58;7.93;;;;;;;;;;5026889;28;20434;-70
2023/06/13 12:25:50;;;;;;;9.25;6.93;;;;;;;;;;5026310;28;20032;-70
2023/06/13 12:28:17;;;;;;;13.30;7.35;;;;;;;;;;5026568;28;20040;-70
2023/06/13 12:30:43;;;;;;;9.45;7.40;;;;;;;;;;5021717;28;20022;-70
2023/06/13 12:33:14;;;;;;;8.35;6.82;;;;;;;;;;5026605;28;20037;-70
2023/06/13 12:36:00;;;;;;;9.43;7.22;;;;;;;;;;5026546;28;20124;-70
2023/06/13 12:38:28;;;;;;;8.68;6.90;;;;;;;;;;5024721;28;20068;-70
2023/06/13 12:40:54;;;;;;;9.40;7.13;;;;;;;;;;5026083;28;20043;-70
2023/06/13 12:43:24;;;;;;;8.70;6.93;;;;;;;;;;5026097;28;20156;-70
2023/06/13 12:45:50;;;;;;;8.00;6.93;;;;;;;;;;5026496;28;20029;-70
2023/06/13 12:48:19;;;;;;;11.50;6.65;;;;;;;;;;5026026;28;20632;-70
2023/06/13 12:50:46;;;;;;;10.27;7.18;;;;;;;;;;5024454;28;20130;-70
2023/06/13 12:53:12;;;;;;;9.95;7.00;;;;;;;;;;5025955;28;20045;-70
2023/06/13 12:55:38;;;;;;;8.25;6.45;;;;;;;;;;5025257;28;20064;-70
2023/06/13 12:58:31;;;;;;;13.43;7.07;;;;;;;;;;5025827;28;20028;-70
2023/06/13 13:01:02;;;;;;;8.82;6.78;;;;;;;;;;5025673;28;20255;-69
2023/06/13 13:03:28;;;;;;;8.05;6.78;;;;;;;;;;5016471;28;20057;-70
2023/06/13 13:05:53;;;;;;;9.98;6.70;;;;;;;;;;5029239;28;20044;-70
2023/06/13 13:08:20;;;;;;;9.43;6.93;;;;;;;;;;5025964;28;20029;-70
2023/06/13 13:10:47;;;;;;;8.43;6.78;;;;;;;;;;5025269;28;20043;-70
2023/06/13 13:13:13;;;;;;;8.65;7.05;;;;;;;;;;5026235;28;20071;-70
2023/06/13 13:15:38;;;;;;;8.93;6.90;;;;;;;;;;5025518;28;20029;-70
2023/06/13 13:18:04;;;;;;;9.23;6.65;;;;;;;;;;5024808;28;20044;-70
2023/06/13 13:20:29;;;;;;;10.10;7.05;;;;;;;;;;5025781;28;20148;-70
2023/06/13 13:22:55;;;;;;;9.85;6.82;;;;;;;;;;5025203;28;20527;-70
2023/06/13 13:25:20;;;;;;;8.10;6.53;;;;;;;;;;5024522;28;20029;-70
2023/06/13 13:27:47;;;;;;;8.35;7.05;;;;;;;;;;5026030;28;20104;-70
2023/06/13 13:30:13;;;;;;;7.75;6.65;;;;;;;;;;5026338;28;20597;-70
2023/06/13 13:32:38;;;;;;;7.95;6.65;;;;;;;;;;5027234;28;20534;-70
2023/06/13 13:35:03;;;;;;;9.10;6.72;;;;;;;;;;5033097;28;20049;-70
2023/06/13 13:37:30;;;;;;;9.30;6.90;;;;;;;;;;5031253;28;20104;-70
2023/06/13 13:39:55;;;;;;;7.18;6.30;;;;;;;;;;5025085;28;20017;-68
2023/06/13 13:42:21;;;;;;;8.43;6.65;;;;;;;;;;5025599;28;20040;-68
2023/06/13 13:44:47;;;;;;;7.72;6.55;;;;;;;;;;5016482;28;20044;-68
2023/06/13 13:47:13;;;;;;;8.30;7.20;;;;;;;;;;5022224;28;20094;-68
2023/06/13 13:49:38;;;;;;;8.63;6.28;;;;;;;;;;5022011;28;20466;-68
2023/06/13 13:52:04;;;;;;;6.90;6.18;;;;;;;;;;5025079;28;20021;-68
2023/06/13 13:54:29;;;;;;;7.93;6.35;;;;;;;;;;5024522;28;20120;-68
2023/06/13 13:56:56;;;;;;;8.05;6.65;;;;;;;;;;5024091;28;20128;-68
2023/06/13 13:59:21;;;;;;;7.97;6.70;;;;;;;;;;5024287;28;20083;-68
2023/06/13 14:01:47;;;;;;;8.10;6.55;;;;;;;;;;5024656;28;20037;-68
2023/06/13 14:04:13;;;;;;;7.05;6.35;;;;;;;;;;5024645;28;20057;-68
2023/06/13 14:06:39;;;;;;;7.40;6.60;;;;;;;;;;5022749;28;20049;-68
2023/06/13 14:09:04;;;;;;;8.27;6.30;;;;;;;;;;5024332;28;20037;-68
2023/06/13 14:11:29;;;;;;;7.72;6.68;;;;;;;;;;5024020;28;20677;-68
2023/06/13 14:13:57;;;;;;;7.57;6.43;;;;;;;;;;5024796;28;20037;-68
2023/06/13 14:16:23;;;;;;;7.93;6.38;;;;;;;;;;5023350;28;20025;-68
2023/06/13 14:18:48;;;;;;;7.65;6.10;;;;;;;;;;5023627;28;20033;-69
2023/06/13 14:21:13;;;;;;;8.30;6.05;;;;;;;;;;5024440;28;20033;-69
2023/06/13 14:23:39;;;;;;;7.50;6.53;;;;;;;;;;5022178;28;20510;-69
2023/06/13 14:26:04;;;;;;;7.70;6.43;;;;;;;;;;5024116;28;20060;-68
2023/06/13 14:28:29;;;;;;;9.40;6.25;;;;;;;;;;5024373;28;20021;-68
2023/06/13 14:30:55;;;;;;;10.82;6.43;;;;;;;;;;5024795;28;20026;-68
2023/06/13 14:33:21;;;;;;;6.43;5.82;;;;;;;;;;5023696;28;20091;-68